sensor_id;sensor_type;location;lat;lon;timestamp;temperature;humidity
22112;DHT22;11222;50.872;4.312;2022-09-01T00:01:44;19.50;99.90
22112;DHT22;11222;50.872;4.312;2022-09-01T00:04:13;19.50;99.90
22112;DHT22;11222;50.872;4.312;2022-09-01T00:06:40;19.50;99.90
22112;DHT22;11222;50.872;4.312;2022-09-01T00:09:12;19.40;99.90
22112;DHT22;11222;50.872;4.312;2022-09-01T00:11:40;19.30;99.90
22112;DHT22;11222;50.872;4.312;2022-09-01T00:14:08;19.30;99.90
22112;DHT22;11222;50.872;4.312;2022-09-01T00:16:34;19.30;99.90
22112;DHT22;11222;50.872;4.312;2022-09-01T00:19:00;19.20;99.90
22112;DHT22;11222;50.872;4.312;2022-09-01T00:21:30;19.20;99.90
22112;DHT22;11222;50.872;4.312;2022-09-01T00:23:57;19.20;99.90
22112;DHT22;11222;50.872;4.312;2022-09-01T00:26:23;19.20;99.90
22112;DHT22;11222;50.872;4.312;2022-09-01T00:28:49;19.30;99.90
22112;DHT22;11222;50.872;4.312;2022-09-01T00:31:15;19.20;99.90
22112;DHT22;11222;50.872;4.312;2022-09-01T00:33:43;19.20;99.90
22112;DHT22;11222;50.872;4.312;2022-09-01T00:36:09;19.20;99.90
22112;DHT22;11222;50.872;4.312;2022-09-01T00:38:35;19.20;99.90
22112;DHT22;11222;50.872;4.312;2022-09-01T00:41:01;19.10;99.90
22112;DHT22;11222;50.872;4.312;2022-09-01T00:46:06;19.10;99.90
22112;DHT22;11222;50.872;4.312;2022-09-01T00:48:33;19.10;99.90
22112;DHT22;11222;50.872;4.312;2022-09-01T00:51:00;19.00;99.90
22112;DHT22;11222;50.872;4.312;2022-09-01T00:53:26;19.00;99.90
22112;DHT22;11222;50.872;4.312;2022-09-01T00:55:52;19.00;99.90
22112;DHT22;11222;50.872;4.312;2022-09-01T00:58:18;19.00;99.90
22112;DHT22;11222;50.872;4.312;2022-09-01T01:00:45;18.90;99.90
22112;DHT22;11222;50.872;4.312;2022-09-01T01:03:14;18.80;99.90
22112;DHT22;11222;50.872;4.312;2022-09-01T01:05:43;18.90;99.90
22112;DHT22;11222;50.872;4.312;2022-09-01T01:08:13;18.90;99.90
22112;DHT22;11222;50.872;4.312;2022-09-01T01:10:40;18.90;99.90
22112;DHT22;11222;50.872;4.312;2022-09-01T01:13:15;18.90;99.90
22112;DHT22;11222;50.872;4.312;2022-09-01T01:15:42;18.90;99.90
22112;DHT22;11222;50.872;4.312;2022-09-01T01:18:14;18.90;99.90
22112;DHT22;11222;50.872;4.312;2022-09-01T01:20:41;18.90;99.90
22112;DHT22;11222;50.872;4.312;2022-09-01T01:25:56;18.60;99.90
22112;DHT22;11222;50.872;4.312;2022-09-01T01:28:30;18.60;99.90
22112;DHT22;11222;50.872;4.312;2022-09-01T01:31:03;18.60;99.90
22112;DHT22;11222;50.872;4.312;2022-09-01T01:33:35;18.60;99.90
22112;DHT22;11222;50.872;4.312;2022-09-01T01:36:06;18.50;99.90
22112;DHT22;11222;50.872;4.312;2022-09-01T01:38:33;18.50;99.90
22112;DHT22;11222;50.872;4.312;2022-09-01T01:41:00;18.40;99.90
22112;DHT22;11222;50.872;4.312;2022-09-01T01:43:28;18.40;99.90
22112;DHT22;11222;50.872;4.312;2022-09-01T01:45:56;18.30;99.90
22112;DHT22;11222;50.872;4.312;2022-09-01T01:48:28;18.30;99.90
22112;DHT22;11222;50.872;4.312;2022-09-01T01:50:55;18.30;99.90
22112;DHT22;11222;50.872;4.312;2022-09-01T01:53:23;18.30;99.90
22112;DHT22;11222;50.872;4.312;2022-09-01T01:55:49;18.30;99.90
22112;DHT22;11222;50.872;4.312;2022-09-01T01:58:16;18.20;99.90
22112;DHT22;11222;50.872;4.312;2022-09-01T02:00:45;18.10;99.90
22112;DHT22;11222;50.872;4.312;2022-09-01T02:03:13;18.20;99.90
22112;DHT22;11222;50.872;4.312;2022-09-01T02:05:45;18.20;99.90
22112;DHT22;11222;50.872;4.312;2022-09-01T02:08:11;18.20;99.90
22112;DHT22;11222;50.872;4.312;2022-09-01T02:10:42;18.20;99.90
22112;DHT22;11222;50.872;4.312;2022-09-01T02:13:11;18.10;99.90
22112;DHT22;11222;50.872;4.312;2022-09-01T02:15:43;18.10;99.90
22112;DHT22;11222;50.872;4.312;2022-09-01T02:18:19;18.10;99.90
22112;DHT22;11222;50.872;4.312;2022-09-01T02:20:45;18.10;99.90
22112;DHT22;11222;50.872;4.312;2022-09-01T02:23:12;18.20;99.90
22112;DHT22;11222;50.872;4.312;2022-09-01T02:25:43;18.20;99.90
22112;DHT22;11222;50.872;4.312;2022-09-01T02:28:14;18.20;99.90
22112;DHT22;11222;50.872;4.312;2022-09-01T02:30:47;18.20;99.90
22112;DHT22;11222;50.872;4.312;2022-09-01T02:33:18;18.20;99.90
22112;DHT22;11222;50.872;4.312;2022-09-01T02:35:45;18.20;99.90
22112;DHT22;11222;50.872;4.312;2022-09-01T02:38:11;18.10;99.90
22112;DHT22;11222;50.872;4.312;2022-09-01T02:40:42;18.10;99.90
22112;DHT22;11222;50.872;4.312;2022-09-01T02:43:12;18.20;99.90
22112;DHT22;11222;50.872;4.312;2022-09-01T02:45:38;18.20;99.90
22112;DHT22;11222;50.872;4.312;2022-09-01T02:48:09;18.10;99.90
22112;DHT22;11222;50.872;4.312;2022-09-01T02:50:39;18.10;99.90
22112;DHT22;11222;50.872;4.312;2022-09-01T02:53:07;18.10;99.90
22112;DHT22;11222;50.872;4.312;2022-09-01T02:55:39;18.10;99.90
22112;DHT22;11222;50.872;4.312;2022-09-01T02:58:06;18.10;99.90
22112;DHT22;11222;50.872;4.312;2022-09-01T03:00:45;18.00;99.90
22112;DHT22;11222;50.872;4.312;2022-09-01T03:03:11;17.90;99.90
22112;DHT22;11222;50.872;4.312;2022-09-01T03:05:38;18.00;99.90
22112;DHT22;11222;50.872;4.312;2022-09-01T03:08:09;17.90;99.90
22112;DHT22;11222;50.872;4.312;2022-09-01T03:10:38;17.80;99.90
22112;DHT22;11222;50.872;4.312;2022-09-01T03:13:15;17.70;99.90
22112;DHT22;11222;50.872;4.312;2022-09-01T03:15:42;17.80;99.90
22112;DHT22;11222;50.872;4.312;2022-09-01T03:18:11;17.80;99.90
22112;DHT22;11222;50.872;4.312;2022-09-01T03:20:38;17.70;99.90
22112;DHT22;11222;50.872;4.312;2022-09-01T03:23:09;17.70;99.90
22112;DHT22;11222;50.872;4.312;2022-09-01T03:25:40;17.60;99.90
22112;DHT22;11222;50.872;4.312;2022-09-01T03:28:06;17.60;99.90
22112;DHT22;11222;50.872;4.312;2022-09-01T03:30:34;17.60;99.90
22112;DHT22;11222;50.872;4.312;2022-09-01T03:33:01;17.60;99.90
22112;DHT22;11222;50.872;4.312;2022-09-01T03:35:28;17.50;99.90
22112;DHT22;11222;50.872;4.312;2022-09-01T03:37:57;17.50;99.90
22112;DHT22;11222;50.872;4.312;2022-09-01T03:40:27;17.50;99.90
22112;DHT22;11222;50.872;4.312;2022-09-01T03:42:54;17.60;99.90
22112;DHT22;11222;50.872;4.312;2022-09-01T03:45:21;17.50;99.90
22112;DHT22;11222;50.872;4.312;2022-09-01T03:47:51;17.50;99.90
22112;DHT22;11222;50.872;4.312;2022-09-01T03:50:21;17.40;99.90
22112;DHT22;11222;50.872;4.312;2022-09-01T03:52:56;17.30;99.90
22112;DHT22;11222;50.872;4.312;2022-09-01T03:55:30;17.30;99.90
22112;DHT22;11222;50.872;4.312;2022-09-01T03:57:59;17.20;99.90
22112;DHT22;11222;50.872;4.312;2022-09-01T04:00:32;17.20;99.90
22112;DHT22;11222;50.872;4.312;2022-09-01T04:03:01;17.20;99.90
22112;DHT22;11222;50.872;4.312;2022-09-01T04:05:29;17.10;99.90
22112;DHT22;11222;50.872;4.312;2022-09-01T04:07:57;17.20;99.90
22112;DHT22;11222;50.872;4.312;2022-09-01T04:10:25;17.20;99.90
22112;DHT22;11222;50.872;4.312;2022-09-01T04:12:52;17.30;99.90
22112;DHT22;11222;50.872;4.312;2022-09-01T04:15:23;17.20;99.90
22112;DHT22;11222;50.872;4.312;2022-09-01T04:17:49;17.30;99.90
22112;DHT22;11222;50.872;4.312;2022-09-01T04:20:52;17.30;99.90
22112;DHT22;11222;50.872;4.312;2022-09-01T04:26:10;17.20;99.90
22112;DHT22;11222;50.872;4.312;2022-09-01T04:28:46;17.20;99.90
22112;DHT22;11222;50.872;4.312;2022-09-01T04:31:18;17.10;99.90
22112;DHT22;11222;50.872;4.312;2022-09-01T04:33:46;17.10;99.90
22112;DHT22;11222;50.872;4.312;2022-09-01T04:36:19;16.90;99.90
22112;DHT22;11222;50.872;4.312;2022-09-01T04:38:49;16.90;99.90
22112;DHT22;11222;50.872;4.312;2022-09-01T04:41:15;16.80;99.90
22112;DHT22;11222;50.872;4.312;2022-09-01T04:43:42;16.80;99.90
22112;DHT22;11222;50.872;4.312;2022-09-01T04:46:09;16.80;99.90
22112;DHT22;11222;50.872;4.312;2022-09-01T04:48:39;16.80;99.90
22112;DHT22;11222;50.872;4.312;2022-09-01T04:51:08;16.70;99.90
22112;DHT22;11222;50.872;4.312;2022-09-01T04:53:35;16.70;99.90
22112;DHT22;11222;50.872;4.312;2022-09-01T04:56:06;16.70;99.90
22112;DHT22;11222;50.872;4.312;2022-09-01T04:58:34;16.80;99.90
22112;DHT22;11222;50.872;4.312;2022-09-01T05:01:02;16.90;99.90
22112;DHT22;11222;50.872;4.312;2022-09-01T05:03:37;16.80;99.90
22112;DHT22;11222;50.872;4.312;2022-09-01T05:06:03;16.80;99.90
22112;DHT22;11222;50.872;4.312;2022-09-01T05:08:29;16.70;99.90
22112;DHT22;11222;50.872;4.312;2022-09-01T05:10:56;16.70;99.90
22112;DHT22;11222;50.872;4.312;2022-09-01T05:13:22;16.70;99.90
22112;DHT22;11222;50.872;4.312;2022-09-01T05:16:03;16.80;99.90
22112;DHT22;11222;50.872;4.312;2022-09-01T05:18:31;16.70;99.90
22112;DHT22;11222;50.872;4.312;2022-09-01T05:20:57;16.80;99.90
22112;DHT22;11222;50.872;4.312;2022-09-01T05:23:23;16.90;99.90
22112;DHT22;11222;50.872;4.312;2022-09-01T05:25:51;16.90;99.90
22112;DHT22;11222;50.872;4.312;2022-09-01T05:28:20;16.90;99.90
22112;DHT22;11222;50.872;4.312;2022-09-01T05:30:49;16.90;99.90
22112;DHT22;11222;50.872;4.312;2022-09-01T05:33:19;16.90;99.90
22112;DHT22;11222;50.872;4.312;2022-09-01T05:35:57;16.90;99.90
22112;DHT22;11222;50.872;4.312;2022-09-01T05:38:26;17.00;99.90
22112;DHT22;11222;50.872;4.312;2022-09-01T05:41:00;17.10;99.90
22112;DHT22;11222;50.872;4.312;2022-09-01T05:43:31;17.10;99.90
22112;DHT22;11222;50.872;4.312;2022-09-01T05:45:58;17.20;99.90
22112;DHT22;11222;50.872;4.312;2022-09-01T05:48:26;17.20;99.90
22112;DHT22;11222;50.872;4.312;2022-09-01T05:50:53;17.00;99.90
22112;DHT22;11222;50.872;4.312;2022-09-01T05:53:24;16.90;99.90
22112;DHT22;11222;50.872;4.312;2022-09-01T05:55:51;16.90;99.90
22112;DHT22;11222;50.872;4.312;2022-09-01T05:58:23;16.90;99.90
22112;DHT22;11222;50.872;4.312;2022-09-01T06:00:51;16.90;99.90
22112;DHT22;11222;50.872;4.312;2022-09-01T06:03:19;16.80;99.90
22112;DHT22;11222;50.872;4.312;2022-09-01T06:05:45;16.70;99.90
22112;DHT22;11222;50.872;4.312;2022-09-01T06:08:13;16.70;99.90
22112;DHT22;11222;50.872;4.312;2022-09-01T06:10:40;16.80;99.90
22112;DHT22;11222;50.872;4.312;2022-09-01T06:13:09;16.80;99.90
22112;DHT22;11222;50.872;4.312;2022-09-01T06:15:36;16.90;99.90
22112;DHT22;11222;50.872;4.312;2022-09-01T06:18:09;17.00;99.90
22112;DHT22;11222;50.872;4.312;2022-09-01T06:20:40;17.00;99.90
22112;DHT22;11222;50.872;4.312;2022-09-01T06:23:08;16.90;99.90
22112;DHT22;11222;50.872;4.312;2022-09-01T06:25:37;17.00;99.90
22112;DHT22;11222;50.872;4.312;2022-09-01T06:28:04;16.90;99.90
22112;DHT22;11222;50.872;4.312;2022-09-01T06:30:30;17.00;99.90
22112;DHT22;11222;50.872;4.312;2022-09-01T06:33:01;17.20;99.90
22112;DHT22;11222;50.872;4.312;2022-09-01T06:35:27;17.20;99.90
22112;DHT22;11222;50.872;4.312;2022-09-01T06:37:55;17.20;99.90
22112;DHT22;11222;50.872;4.312;2022-09-01T06:40:21;17.20;99.90
22112;DHT22;11222;50.872;4.312;2022-09-01T06:42:51;17.20;99.90
22112;DHT22;11222;50.872;4.312;2022-09-01T06:45:22;17.30;99.90
22112;DHT22;11222;50.872;4.312;2022-09-01T06:47:49;17.40;99.90
22112;DHT22;11222;50.872;4.312;2022-09-01T06:50:18;17.50;99.90
22112;DHT22;11222;50.872;4.312;2022-09-01T06:52:46;17.60;99.90
22112;DHT22;11222;50.872;4.312;2022-09-01T06:55:13;17.50;99.90
22112;DHT22;11222;50.872;4.312;2022-09-01T06:57:40;17.50;99.90
22112;DHT22;11222;50.872;4.312;2022-09-01T07:00:08;17.60;99.90
22112;DHT22;11222;50.872;4.312;2022-09-01T07:02:46;17.70;99.90
22112;DHT22;11222;50.872;4.312;2022-09-01T07:05:13;17.90;99.90
22112;DHT22;11222;50.872;4.312;2022-09-01T07:07:45;18.00;99.90
22112;DHT22;11222;50.872;4.312;2022-09-01T07:10:12;17.90;99.90
22112;DHT22;11222;50.872;4.312;2022-09-01T07:12:39;17.90;99.90
22112;DHT22;11222;50.872;4.312;2022-09-01T07:15:10;17.90;99.90
22112;DHT22;11222;50.872;4.312;2022-09-01T07:17:48;18.10;99.90
22112;DHT22;11222;50.872;4.312;2022-09-01T07:20:15;18.00;99.90
22112;DHT22;11222;50.872;4.312;2022-09-01T07:22:41;18.10;99.90
22112;DHT22;11222;50.872;4.312;2022-09-01T07:25:07;18.40;99.90
22112;DHT22;11222;50.872;4.312;2022-09-01T07:27:37;18.40;99.90
22112;DHT22;11222;50.872;4.312;2022-09-01T07:30:04;18.50;99.90
22112;DHT22;11222;50.872;4.312;2022-09-01T07:32:36;18.50;99.90
22112;DHT22;11222;50.872;4.312;2022-09-01T07:35:04;18.60;99.90
22112;DHT22;11222;50.872;4.312;2022-09-01T07:37:33;18.70;99.90
22112;DHT22;11222;50.872;4.312;2022-09-01T07:40:08;18.70;99.90
22112;DHT22;11222;50.872;4.312;2022-09-01T07:42:34;18.70;99.90
22112;DHT22;11222;50.872;4.312;2022-09-01T07:45:01;18.70;99.90
22112;DHT22;11222;50.872;4.312;2022-09-01T07:47:32;18.80;99.90
22112;DHT22;11222;50.872;4.312;2022-09-01T07:50:04;18.80;99.90
22112;DHT22;11222;50.872;4.312;2022-09-01T07:52:34;18.90;99.90
22112;DHT22;11222;50.872;4.312;2022-09-01T07:55:01;18.80;99.90
22112;DHT22;11222;50.872;4.312;2022-09-01T07:57:28;18.80;99.90
22112;DHT22;11222;50.872;4.312;2022-09-01T07:59:53;18.80;99.90
22112;DHT22;11222;50.872;4.312;2022-09-01T08:02:20;19.00;99.90
22112;DHT22;11222;50.872;4.312;2022-09-01T08:04:46;19.00;99.90
22112;DHT22;11222;50.872;4.312;2022-09-01T08:07:13;19.20;99.90
22112;DHT22;11222;50.872;4.312;2022-09-01T08:09:39;19.30;99.90
22112;DHT22;11222;50.872;4.312;2022-09-01T08:12:06;19.40;99.90
22112;DHT22;11222;50.872;4.312;2022-09-01T08:14:32;19.40;99.90
22112;DHT22;11222;50.872;4.312;2022-09-01T08:16:58;19.50;99.90
22112;DHT22;11222;50.872;4.312;2022-09-01T08:19:24;19.80;99.90
22112;DHT22;11222;50.872;4.312;2022-09-01T08:21:50;19.90;99.90
22112;DHT22;11222;50.872;4.312;2022-09-01T08:24:16;20.10;99.90
22112;DHT22;11222;50.872;4.312;2022-09-01T08:26:41;20.20;99.90
22112;DHT22;11222;50.872;4.312;2022-09-01T08:29:07;20.40;99.90
22112;DHT22;11222;50.872;4.312;2022-09-01T08:31:34;20.60;99.90
22112;DHT22;11222;50.872;4.312;2022-09-01T08:34:00;20.70;99.90
22112;DHT22;11222;50.872;4.312;2022-09-01T08:36:30;20.80;99.90
22112;DHT22;11222;50.872;4.312;2022-09-01T08:38:56;21.00;99.90
22112;DHT22;11222;50.872;4.312;2022-09-01T08:44:06;21.30;99.90
22112;DHT22;11222;50.872;4.312;2022-09-01T08:46:38;21.50;99.90
22112;DHT22;11222;50.872;4.312;2022-09-01T08:49:11;22.10;99.90
22112;DHT22;11222;50.872;4.312;2022-09-01T08:51:57;22.80;99.90
22112;DHT22;11222;50.872;4.312;2022-09-01T08:54:31;23.20;99.90
22112;DHT22;11222;50.872;4.312;2022-09-01T08:57:01;23.30;99.90
22112;DHT22;11222;50.872;4.312;2022-09-01T08:59:29;23.80;99.90
22112;DHT22;11222;50.872;4.312;2022-09-01T09:02:28;24.30;99.90
22112;DHT22;11222;50.872;4.312;2022-09-01T09:16:05;27.50;99.90
22112;DHT22;11222;50.872;4.312;2022-09-01T09:21:11;29.40;99.90
22112;DHT22;11222;50.872;4.312;2022-09-01T09:23:41;28.50;99.90
22112;DHT22;11222;50.872;4.312;2022-09-01T09:26:08;27.40;99.90
22112;DHT22;11222;50.872;4.312;2022-09-01T09:28:33;27.60;99.90
22112;DHT22;11222;50.872;4.312;2022-09-01T09:31:36;28.80;99.90
22112;DHT22;11222;50.872;4.312;2022-09-01T09:37:00;28.80;99.90
22112;DHT22;11222;50.872;4.312;2022-09-01T09:39:26;30.40;99.90
22112;DHT22;11222;50.872;4.312;2022-09-01T09:42:09;29.90;99.90
22112;DHT22;11222;50.872;4.312;2022-09-01T09:44:47;29.10;99.90
22112;DHT22;11222;50.872;4.312;2022-09-01T09:47:41;30.60;99.90
22112;DHT22;11222;50.872;4.312;2022-09-01T09:50:15;30.80;99.90
22112;DHT22;11222;50.872;4.312;2022-09-01T09:52:42;28.10;99.90
22112;DHT22;11222;50.872;4.312;2022-09-01T09:55:26;27.80;99.90
22112;DHT22;11222;50.872;4.312;2022-09-01T09:57:57;27.70;99.90
22112;DHT22;11222;50.872;4.312;2022-09-01T10:00:32;27.20;99.90
22112;DHT22;11222;50.872;4.312;2022-09-01T10:03:16;27.30;99.90
22112;DHT22;11222;50.872;4.312;2022-09-01T10:05:58;27.70;99.90
22112;DHT22;11222;50.872;4.312;2022-09-01T10:10:52;26.60;99.90
22112;DHT22;11222;50.872;4.312;2022-09-01T10:13:23;27.00;99.90
22112;DHT22;11222;50.872;4.312;2022-09-01T10:15:51;27.50;99.90
22112;DHT22;11222;50.872;4.312;2022-09-01T10:18:20;27.40;99.90
22112;DHT22;11222;50.872;4.312;2022-09-01T10:21:20;27.50;99.90
22112;DHT22;11222;50.872;4.312;2022-09-01T10:23:48;28.10;99.90
22112;DHT22;11222;50.872;4.312;2022-09-01T10:26:28;27.90;99.90
22112;DHT22;11222;50.872;4.312;2022-09-01T10:29:03;27.90;99.90
22112;DHT22;11222;50.872;4.312;2022-09-01T10:31:31;28.10;99.90
22112;DHT22;11222;50.872;4.312;2022-09-01T10:34:00;27.80;99.70
22112;DHT22;11222;50.872;4.312;2022-09-01T10:36:28;27.40;99.90
22112;DHT22;11222;50.872;4.312;2022-09-01T10:38:53;27.20;99.80
22112;DHT22;11222;50.872;4.312;2022-09-01T10:41:47;27.60;99.30
22112;DHT22;11222;50.872;4.312;2022-09-01T10:44:35;27.30;99.60
22112;DHT22;11222;50.872;4.312;2022-09-01T10:47:10;27.80;98.90
22112;DHT22;11222;50.872;4.312;2022-09-01T10:52:02;28.80;97.60
22112;DHT22;11222;50.872;4.312;2022-09-01T10:57:08;29.40;95.80
22112;DHT22;11222;50.872;4.312;2022-09-01T10:59:35;29.90;95.00
22112;DHT22;11222;50.872;4.312;2022-09-01T11:07:31;28.70;94.70
22112;DHT22;11222;50.872;4.312;2022-09-01T11:15:47;29.60;92.30
22112;DHT22;11222;50.872;4.312;2022-09-01T11:18:16;29.10;93.00
22112;DHT22;11222;50.872;4.312;2022-09-01T11:20:47;29.10;93.10
22112;DHT22;11222;50.872;4.312;2022-09-01T11:23:24;28.90;93.70
22112;DHT22;11222;50.872;4.312;2022-09-01T11:25:54;29.60;92.50
22112;DHT22;11222;50.872;4.312;2022-09-01T11:30:55;31.70;90.20
22112;DHT22;11222;50.872;4.312;2022-09-01T11:36:00;28.80;91.40
22112;DHT22;11222;50.872;4.312;2022-09-01T11:38:28;28.40;92.30
22112;DHT22;11222;50.872;4.312;2022-09-01T11:40:56;27.70;92.40
22112;DHT22;11222;50.872;4.312;2022-09-01T11:43:23;28.20;92.00
22112;DHT22;11222;50.872;4.312;2022-09-01T11:48:24;31.20;88.00
22112;DHT22;11222;50.872;4.312;2022-09-01T11:51:00;29.90;89.40
22112;DHT22;11222;50.872;4.312;2022-09-01T11:53:26;28.40;91.30
22112;DHT22;11222;50.872;4.312;2022-09-01T11:55:54;28.50;91.30
22112;DHT22;11222;50.872;4.312;2022-09-01T12:01:11;27.20;92.10
22112;DHT22;11222;50.872;4.312;2022-09-01T12:03:38;26.90;92.70
22112;DHT22;11222;50.872;4.312;2022-09-01T12:06:07;26.70;93.00
22112;DHT22;11222;50.872;4.312;2022-09-01T12:08:41;27.10;92.80
22112;DHT22;11222;50.872;4.312;2022-09-01T12:11:27;27.30;92.50
22112;DHT22;11222;50.872;4.312;2022-09-01T12:14:09;27.00;92.70
22112;DHT22;11222;50.872;4.312;2022-09-01T12:16:37;26.90;93.20
22112;DHT22;11222;50.872;4.312;2022-09-01T12:19:05;26.90;93.50
22112;DHT22;11222;50.872;4.312;2022-09-01T12:21:37;26.60;94.00
22112;DHT22;11222;50.872;4.312;2022-09-01T12:24:20;26.50;93.90
22112;DHT22;11222;50.872;4.312;2022-09-01T12:26:48;26.60;94.20
22112;DHT22;11222;50.872;4.312;2022-09-01T12:29:16;26.80;94.20
22112;DHT22;11222;50.872;4.312;2022-09-01T12:31:43;26.60;94.30
22112;DHT22;11222;50.872;4.312;2022-09-01T12:39:40;26.20;94.60
22112;DHT22;11222;50.872;4.312;2022-09-01T12:45:05;25.60;95.20
22112;DHT22;11222;50.872;4.312;2022-09-01T12:49:59;25.80;95.00
22112;DHT22;11222;50.872;4.312;2022-09-01T12:52:26;25.80;95.00
22112;DHT22;11222;50.872;4.312;2022-09-01T12:57:40;26.00;94.70
22112;DHT22;11222;50.872;4.312;2022-09-01T13:03:03;26.10;94.70
22112;DHT22;11222;50.872;4.312;2022-09-01T13:05:37;26.00;95.10
22112;DHT22;11222;50.872;4.312;2022-09-01T13:08:12;25.90;94.80
22112;DHT22;11222;50.872;4.312;2022-09-01T13:10:47;25.90;94.90
22112;DHT22;11222;50.872;4.312;2022-09-01T13:13:14;26.10;95.60
22112;DHT22;11222;50.872;4.312;2022-09-01T13:15:48;26.00;95.00
22112;DHT22;11222;50.872;4.312;2022-09-01T13:18:19;25.80;95.30
22112;DHT22;11222;50.872;4.312;2022-09-01T13:20:46;25.80;95.20
22112;DHT22;11222;50.872;4.312;2022-09-01T13:23:12;25.80;95.50
22112;DHT22;11222;50.872;4.312;2022-09-01T13:25:39;25.70;96.00
22112;DHT22;11222;50.872;4.312;2022-09-01T13:28:06;25.70;95.60
22112;DHT22;11222;50.872;4.312;2022-09-01T13:30:34;25.80;96.10
22112;DHT22;11222;50.872;4.312;2022-09-01T13:33:00;25.80;95.60
22112;DHT22;11222;50.872;4.312;2022-09-01T13:35:26;25.90;95.50
22112;DHT22;11222;50.872;4.312;2022-09-01T13:37:51;25.80;95.30
22112;DHT22;11222;50.872;4.312;2022-09-01T13:40:19;25.90;96.00
22112;DHT22;11222;50.872;4.312;2022-09-01T13:42:46;25.90;95.60
22112;DHT22;11222;50.872;4.312;2022-09-01T13:45:13;25.60;95.60
22112;DHT22;11222;50.872;4.312;2022-09-01T13:47:40;25.50;95.80
22112;DHT22;11222;50.872;4.312;2022-09-01T13:50:06;25.60;95.60
22112;DHT22;11222;50.872;4.312;2022-09-01T13:52:32;25.70;95.00
22112;DHT22;11222;50.872;4.312;2022-09-01T13:54:59;25.90;95.10
22112;DHT22;11222;50.872;4.312;2022-09-01T13:57:26;26.20;95.60
22112;DHT22;11222;50.872;4.312;2022-09-01T13:59:51;25.70;95.70
22112;DHT22;11222;50.872;4.312;2022-09-01T14:02:17;26.00;95.70
22112;DHT22;11222;50.872;4.312;2022-09-01T14:04:43;25.90;95.30
22112;DHT22;11222;50.872;4.312;2022-09-01T14:07:08;25.70;95.30
22112;DHT22;11222;50.872;4.312;2022-09-01T14:09:34;25.90;95.30
22112;DHT22;11222;50.872;4.312;2022-09-01T14:12:00;25.60;95.00
22112;DHT22;11222;50.872;4.312;2022-09-01T14:14:26;25.90;95.10
22112;DHT22;11222;50.872;4.312;2022-09-01T14:16:52;25.90;94.60
22112;DHT22;11222;50.872;4.312;2022-09-01T14:19:18;25.90;94.70
22112;DHT22;11222;50.872;4.312;2022-09-01T14:21:44;26.00;94.50
22112;DHT22;11222;50.872;4.312;2022-09-01T14:24:11;25.80;94.20
22112;DHT22;11222;50.872;4.312;2022-09-01T14:26:39;26.00;94.30
22112;DHT22;11222;50.872;4.312;2022-09-01T14:29:04;26.10;94.20
22112;DHT22;11222;50.872;4.312;2022-09-01T14:31:31;26.10;94.50
22112;DHT22;11222;50.872;4.312;2022-09-01T14:33:56;25.90;94.40
22112;DHT22;11222;50.872;4.312;2022-09-01T14:36:24;25.90;94.30
22112;DHT22;11222;50.872;4.312;2022-09-01T14:38:50;26.10;94.30
22112;DHT22;11222;50.872;4.312;2022-09-01T14:41:18;26.10;94.10
22112;DHT22;11222;50.872;4.312;2022-09-01T14:43:46;26.00;93.90
22112;DHT22;11222;50.872;4.312;2022-09-01T14:46:11;25.90;93.80
22112;DHT22;11222;50.872;4.312;2022-09-01T14:48:38;25.90;94.30
22112;DHT22;11222;50.872;4.312;2022-09-01T14:51:04;25.90;94.40
22112;DHT22;11222;50.872;4.312;2022-09-01T14:53:30;25.90;94.40
22112;DHT22;11222;50.872;4.312;2022-09-01T14:55:57;25.90;94.40
22112;DHT22;11222;50.872;4.312;2022-09-01T14:58:25;25.60;94.10
22112;DHT22;11222;50.872;4.312;2022-09-01T15:00:52;25.60;94.50
22112;DHT22;11222;50.872;4.312;2022-09-01T15:03:21;25.70;94.10
22112;DHT22;11222;50.872;4.312;2022-09-01T15:05:47;25.70;94.20
22112;DHT22;11222;50.872;4.312;2022-09-01T15:08:14;25.80;94.10
22112;DHT22;11222;50.872;4.312;2022-09-01T15:10:40;25.90;93.50
22112;DHT22;11222;50.872;4.312;2022-09-01T15:13:06;26.10;93.60
22112;DHT22;11222;50.872;4.312;2022-09-01T15:15:33;25.90;92.90
22112;DHT22;11222;50.872;4.312;2022-09-01T15:17:59;26.10;93.10
22112;DHT22;11222;50.872;4.312;2022-09-01T15:20:26;26.10;92.90
22112;DHT22;11222;50.872;4.312;2022-09-01T15:23:22;25.80;92.80
22112;DHT22;11222;50.872;4.312;2022-09-01T15:25:52;25.90;93.10
22112;DHT22;11222;50.872;4.312;2022-09-01T15:28:18;25.90;92.80
22112;DHT22;11222;50.872;4.312;2022-09-01T15:30:44;25.70;93.00
22112;DHT22;11222;50.872;4.312;2022-09-01T15:33:11;25.60;93.20
22112;DHT22;11222;50.872;4.312;2022-09-01T15:35:37;25.60;93.20
22112;DHT22;11222;50.872;4.312;2022-09-01T15:38:03;25.60;92.70
22112;DHT22;11222;50.872;4.312;2022-09-01T15:40:32;25.60;92.50
22112;DHT22;11222;50.872;4.312;2022-09-01T15:42:58;25.40;92.80
22112;DHT22;11222;50.872;4.312;2022-09-01T15:45:26;25.50;92.80
22112;DHT22;11222;50.872;4.312;2022-09-01T15:47:53;25.30;92.30
22112;DHT22;11222;50.872;4.312;2022-09-01T15:50:21;25.30;92.40
22112;DHT22;11222;50.872;4.312;2022-09-01T15:52:59;25.30;92.20
22112;DHT22;11222;50.872;4.312;2022-09-01T15:55:29;25.30;92.30
22112;DHT22;11222;50.872;4.312;2022-09-01T15:57:57;25.50;92.40
22112;DHT22;11222;50.872;4.312;2022-09-01T16:00:24;25.70;91.90
22112;DHT22;11222;50.872;4.312;2022-09-01T16:02:50;25.90;91.40
22112;DHT22;11222;50.872;4.312;2022-09-01T16:05:16;26.00;91.40
22112;DHT22;11222;50.872;4.312;2022-09-01T16:07:42;26.00;90.90
22112;DHT22;11222;50.872;4.312;2022-09-01T16:10:08;25.70;91.00
22112;DHT22;11222;50.872;4.312;2022-09-01T16:12:40;25.60;91.30
22112;DHT22;11222;50.872;4.312;2022-09-01T16:15:12;25.70;91.50
22112;DHT22;11222;50.872;4.312;2022-09-01T16:21:09;25.50;91.20
22112;DHT22;11222;50.872;4.312;2022-09-01T16:23:42;25.40;91.30
22112;DHT22;11222;50.872;4.312;2022-09-01T16:26:08;25.20;91.00
22112;DHT22;11222;50.872;4.312;2022-09-01T16:28:37;25.20;91.30
22112;DHT22;11222;50.872;4.312;2022-09-01T16:31:20;25.30;90.90
22112;DHT22;11222;50.872;4.312;2022-09-01T16:33:50;25.30;90.80
22112;DHT22;11222;50.872;4.312;2022-09-01T16:36:35;25.30;90.90
22112;DHT22;11222;50.872;4.312;2022-09-01T16:42:03;25.40;91.10
22112;DHT22;11222;50.872;4.312;2022-09-01T16:58:49;25.30;91.00
22112;DHT22;11222;50.872;4.312;2022-09-01T17:01:23;25.00;91.30
22112;DHT22;11222;50.872;4.312;2022-09-01T17:04:09;25.00;91.50
22112;DHT22;11222;50.872;4.312;2022-09-01T17:06:55;24.90;91.70
22112;DHT22;11222;50.872;4.312;2022-09-01T17:09:34;24.90;91.90
22112;DHT22;11222;50.872;4.312;2022-09-01T17:14:48;24.80;91.90
22112;DHT22;11222;50.872;4.312;2022-09-01T17:17:20;24.70;92.00
22112;DHT22;11222;50.872;4.312;2022-09-01T17:19:48;24.70;91.90
22112;DHT22;11222;50.872;4.312;2022-09-01T17:22:18;24.70;91.90